Time;durP1;ratioP1;P1;durP2;ratioP2;P2;SDS_P1;SDS_P2;PMS_P1;PMS_P2;Temp;Humidity;BMP_temperature;BMP_pressure;BME280_temperature;BME280_humidity;BME280_pressure;Samples;Min_cycle;Max_cycle;Signal;HPM_P1;HPM_P2
2022/01/07 00:00:03;;;;;;;7.72;3.08;;;4.70;99.90;;;;;;4231479;28;20051;-84
2022/01/07 00:02:06;;;;;;;7.47;2.72;;;3.70;99.90;;;;;;4232382;28;20050;-84
2022/01/07 00:04:06;;;;;;;11.00;2.50;;;3.70;99.90;;;;;;4232627;28;20046;-84
2022/01/07 00:06:07;;;;;;;9.77;2.72;;;3.70;99.90;;;;;;4214123;28;20135;-85
2022/01/07 00:08:08;;;;;;;6.43;2.90;;;3.80;99.90;;;;;;4213540;28;20044;-84
2022/01/07 00:10:12;;;;;;;5.88;2.72;;;3.60;99.90;;;;;;4214205;28;20044;-84
2022/01/07 00:12:19;;;;;;;9.50;2.92;;;5.10;99.90;;;;;;4232574;28;20047;-85
2022/01/07 00:14:23;;;;;;;16.75;4.68;;;4.10;99.90;;;;;;4213596;28;20048;-84
2022/01/07 00:16:25;;;;;;;11.85;2.95;;;3.90;99.90;;;;;;4230782;28;20659;-84
2022/01/07 00:18:26;;;;;;;15.05;3.47;;;4.20;99.90;;;;;;4213948;28;20067;-85
2022/01/07 00:20:27;;;;;;;8.02;2.38;;;4.20;99.90;;;;;;4231103;28;20129;-84
2022/01/07 00:22:29;;;;;;;10.95;3.20;;;3.70;99.90;;;;;;4231303;28;20039;-85
2022/01/07 00:24:30;;;;;;;9.88;2.80;;;5.10;99.90;;;;;;4214265;28;20408;-85
2022/01/07 00:26:30;;;;;;;15.55;3.78;;;5.10;99.90;;;;;;4214008;28;20044;-85
2022/01/07 00:28:31;;;;;;;15.82;2.95;;;4.30;99.90;;;;;;4213674;28;20076;-85
2022/01/07 00:30:33;;;;;;;12.43;2.45;;;4.90;99.90;;;;;;4215329;28;20047;-85
2022/01/07 00:32:34;;;;;;;12.60;3.58;;;4.50;99.90;;;;;;4214812;28;20400;-85
2022/01/07 00:34:34;;;;;;;16.42;3.13;;;4.70;99.90;;;;;;4199074;28;20082;-85
2022/01/07 00:36:38;;;;;;;10.52;2.30;;;4.50;99.90;;;;;;4216653;28;20055;-85
2022/01/07 00:38:39;;;;;;;9.77;3.00;;;4.50;99.90;;;;;;4215094;28;20043;-85
2022/01/07 00:40:43;;;;;;;10.60;2.72;;;5.00;99.90;;;;;;4213738;28;20113;-84
2022/01/07 00:42:49;;;;;;;8.15;3.10;;;4.70;99.90;;;;;;4218294;28;20040;-85
2022/01/07 00:44:49;;;;;;;11.93;2.67;;;4.20;99.90;;;;;;4232268;28;20062;-85
2022/01/07 00:46:51;;;;;;;16.05;4.28;;;4.30;99.90;;;;;;4231560;28;20039;-85
2022/01/07 00:48:52;;;;;;;5.45;2.95;;;3.40;99.90;;;;;;4231157;28;20043;-84
2022/01/07 00:50:53;;;;;;;7.70;2.65;;;3.50;99.90;;;;;;4213958;28;20051;-84
2022/01/07 00:52:54;;;;;;;12.02;3.45;;;;;;;;;;4213426;28;20127;-85
2022/01/07 00:54:55;;;;;;;7.50;3.15;;;3.30;99.90;;;;;;4231925;28;20123;-84
2022/01/07 00:56:57;;;;;;;11.13;3.13;;;3.20;99.90;;;;;;4233813;28;20043;-85
2022/01/07 00:58:57;;;;;;;5.75;2.63;;;4.30;99.90;;;;;;4235414;28;20399;-85
2022/01/07 01:00:58;;;;;;;7.38;2.97;;;3.20;99.90;;;;;;4233724;28;20044;-85
2022/01/07 01:02:59;;;;;;;8.93;2.80;;;3.60;99.90;;;;;;4216930;28;20236;-85
2022/01/07 01:05:05;;;;;;;7.55;2.60;;;4.40;99.90;;;;;;4235010;28;20048;-85
2022/01/07 01:07:06;;;;;;;10.85;3.20;;;3.10;99.90;;;;;;4210450;28;20094;-85
2022/01/07 01:09:13;;;;;;;6.72;2.75;;;3.30;99.90;;;;;;4216734;28;20087;-85
2022/01/07 01:11:15;;;;;;;7.53;2.90;;;4.50;99.90;;;;;;4200256;28;20066;-85
2022/01/07 01:13:17;;;;;;;9.75;2.80;;;4.00;99.90;;;;;;4217075;28;20090;-84
2022/01/07 01:15:24;;;;;;;12.05;3.97;;;3.80;99.90;;;;;;4218117;28;20602;-85
2022/01/07 01:17:25;;;;;;;8.75;2.60;;;4.00;99.90;;;;;;4218701;28;20109;-85
2022/01/07 01:19:29;;;;;;;8.43;3.22;;;3.70;99.90;;;;;;4218233;28;20504;-84
2022/01/07 01:21:30;;;;;;;11.65;3.20;;;2.90;99.90;;;;;;4218364;28;20079;-84
2022/01/07 01:23:32;;;;;;;8.45;3.80;;;2.90;99.90;;;;;;4200343;28;20378;-85
2022/01/07 01:25:34;;;;;;;8.48;3.13;;;3.00;99.90;;;;;;4218716;28;20044;-85
2022/01/07 01:27:36;;;;;;;14.63;3.63;;;2.80;99.90;;;;;;4206972;28;20480;-85
2022/01/07 01:29:37;;;;;;;6.63;3.13;;;2.80;99.90;;;;;;4216993;28;20135;-85
2022/01/07 01:31:39;;;;;;;11.75;3.05;;;3.90;99.90;;;;;;4217226;28;20114;-85
2022/01/07 01:33:42;;;;;;;18.33;3.25;;;2.80;99.90;;;;;;4217494;28;20063;-85
2022/01/07 01:35:43;;;;;;;10.50;2.80;;;3.90;99.90;;;;;;4218456;28;20437;-85
2022/01/07 01:37:45;;;;;;;6.15;3.15;;;2.80;99.90;;;;;;4199838;28;20052;-85
2022/01/07 01:39:46;;;;;;;11.60;3.45;;;3.90;99.90;;;;;;4218093;28;20055;-85
2022/01/07 01:41:47;;;;;;;11.35;3.50;;;3.90;99.90;;;;;;4248584;27;20428;-85
2022/01/07 01:43:49;;;;;;;12.27;2.97;;;3.80;99.90;;;;;;4269480;27;20506;-85
2022/01/07 01:45:50;;;;;;;12.48;4.15;;;3.10;99.90;;;;;;4250871;27;20043;-85
2022/01/07 01:47:52;;;;;;;11.07;3.50;;;2.60;99.90;;;;;;4250818;27;20075;-85
2022/01/07 01:49:54;;;;;;;9.02;3.08;;;2.60;99.90;;;;;;4269267;27;20034;-85
2022/01/07 01:51:54;;;;;;;11.35;3.33;;;3.20;99.90;;;;;;4233639;28;20062;-85
2022/01/07 01:53:56;;;;;;;12.10;3.72;;;2.50;99.90;;;;;;4233921;28;20048;-85
2022/01/07 01:55:58;;;;;;;17.02;4.25;;;2.50;99.90;;;;;;4250806;27;20475;-85
2022/01/07 01:58:00;;;;;;;10.25;3.08;;;2.40;99.90;;;;;;4251059;27;20047;-85
2022/01/07 02:00:06;;;;;;;9.90;3.30;;;2.70;99.90;;;;;;4250941;27;20124;-85
2022/01/07 02:02:08;;;;;;;10.32;3.78;;;2.50;99.90;;;;;;4233264;28;20050;-85
2022/01/07 02:04:10;;;;;;;9.02;2.95;;;2.50;99.90;;;;;;4234224;28;20402;-85
2022/01/07 02:06:11;;;;;;;8.50;3.33;;;2.60;99.90;;;;;;4252524;27;20043;-85
2022/01/07 02:08:13;;;;;;;10.13;3.78;;;2.50;99.90;;;;;;4251527;27;20454;-85
2022/01/07 02:10:16;;;;;;;13.40;3.85;;;4.10;99.90;;;;;;4234018;28;20093;-85
2022/01/07 02:12:18;;;;;;;9.40;2.85;;;2.50;99.90;;;;;;4252395;27;20396;-85
2022/01/07 02:14:20;;;;;;;9.65;3.10;;;2.90;99.90;;;;;;4234132;28;20059;-85
2022/01/07 02:16:24;;;;;;;9.23;2.88;;;3.80;99.90;;;;;;4228329;28;20047;-85
2022/01/07 02:18:26;;;;;;;9.70;3.47;;;2.80;99.90;;;;;;4250358;27;20043;-85
2022/01/07 02:20:28;;;;;;;6.13;3.03;;;2.90;99.90;;;;;;4216662;28;20048;-85
2022/01/07 02:22:34;;;;;;;6.05;3.03;;;3.60;99.90;;;;;;4217372;28;20048;-85
2022/01/07 02:24:37;;;;;;;6.97;3.03;;;3.80;99.90;;;;;;4232986;28;20160;-85
2022/01/07 02:26:38;;;;;;;7.40;3.13;;;3.50;99.90;;;;;;4252299;27;20047;-85
2022/01/07 02:28:41;;;;;;;9.52;3.50;;;3.20;99.90;;;;;;4234203;28;20047;-85
2022/01/07 02:30:42;;;;;;;7.90;2.88;;;2.60;99.90;;;;;;4251718;27;20118;-85
2022/01/07 02:32:44;;;;;;;9.07;3.35;;;3.70;99.90;;;;;;4218939;28;20084;-85
2022/01/07 02:34:48;;;;;;;9.10;2.97;;;3.30;99.90;;;;;;4218170;28;20086;-85
2022/01/07 02:36:49;;;;;;;12.15;3.80;;;3.50;99.90;;;;;;4217375;28;20135;-85
2022/01/07 02:38:51;;;;;;;5.95;3.08;;;3.10;99.90;;;;;;4217250;28;20051;-85
2022/01/07 02:40:52;;;;;;;8.50;3.10;;;2.40;99.90;;;;;;4217308;28;20044;-85
2022/01/07 02:42:54;;;;;;;8.40;2.88;;;3.40;99.90;;;;;;4216520;28;20108;-85
2022/01/07 02:44:56;;;;;;;10.25;4.00;;;2.40;99.90;;;;;;4233693;28;20052;-85
2022/01/07 02:46:57;;;;;;;11.93;3.78;;;2.40;99.90;;;;;;4216689;28;20048;-85
2022/01/07 02:48:57;;;;;;;6.10;3.60;;;2.90;99.90;;;;;;4233608;28;20526;-85
2022/01/07 02:50:59;;;;;;;8.75;3.83;;;3.20;99.90;;;;;;4252061;27;20039;-85
2022/01/07 02:53:04;;;;;;;10.85;3.45;;;2.40;99.90;;;;;;4232887;28;20380;-85
2022/01/07 02:55:05;;;;;;;9.48;3.35;;;3.40;99.90;;;;;;4233246;28;20043;-86
2022/01/07 02:57:06;;;;;;;11.13;3.92;;;2.50;99.90;;;;;;4252232;27;20046;-85
2022/01/07 02:59:09;;;;;;;6.88;3.97;;;2.50;99.90;;;;;;4217178;28;20047;-85
2022/01/07 03:01:11;;;;;;;4.70;2.90;;;2.10;99.90;;;;;;4233557;28;20062;-85
2022/01/07 03:03:12;;;;;;;5.03;3.13;;;3.20;99.90;;;;;;4233109;28;20051;-85
2022/01/07 03:05:13;;;;;;;7.72;3.38;;;2.50;99.90;;;;;;4216792;28;20533;-85
2022/01/07 03:07:21;;;;;;;8.27;3.90;;;2.50;99.90;;;;;;4215482;28;20079;-85
2022/01/07 03:09:22;;;;;;;6.75;3.42;;;3.40;99.90;;;;;;4233190;28;20083;-85
2022/01/07 03:11:24;;;;;;;9.50;3.78;;;3.00;99.90;;;;;;4215908;28;20055;-85
2022/01/07 03:13:27;;;;;;;13.77;3.90;;;3.50;99.90;;;;;;4250151;27;20375;-85
2022/01/07 03:15:34;;;;;;;8.60;3.97;;;3.70;99.90;;;;;;4250835;27;20508;-86
2022/01/07 03:17:37;;;;;;;8.70;3.40;;;3.10;99.90;;;;;;4215807;28;20097;-85
2022/01/07 03:19:39;;;;;;;8.10;3.50;;;3.40;99.90;;;;;;4231828;28;20101;-85
2022/01/07 03:21:42;;;;;;;10.10;3.80;;;3.70;99.90;;;;;;4233283;28;20051;-85
2022/01/07 03:23:44;;;;;;;9.38;4.05;;;3.00;99.90;;;;;;4251378;27;20047;-86
2022/01/07 03:25:46;;;;;;;10.07;3.20;;;3.00;99.90;;;;;;4250932;27;20404;-85
2022/01/07 03:27:48;;;;;;;8.57;3.30;;;2.50;99.90;;;;;;4251022;27;20114;-85
2022/01/07 03:29:50;;;;;;;7.22;3.80;;;2.50;99.90;;;;;;4215764;28;20048;-86
2022/01/07 03:31:51;;;;;;;9.10;3.40;;;2.70;99.90;;;;;;4232517;28;20051;-85
2022/01/07 03:33:52;;;;;;;10.63;4.00;;;3.00;99.90;;;;;;4215475;28;20040;-85
2022/01/07 03:35:54;;;;;;;8.48;3.42;;;3.30;99.90;;;;;;4250500;27;20046;-85
2022/01/07 03:37:55;;;;;;;7.97;3.80;;;2.50;99.90;;;;;;4250533;27;20043;-85
2022/01/07 03:39:57;;;;;;;11.20;4.47;;;3.00;99.90;;;;;;4215875;28;20051;-85
2022/01/07 03:41:58;;;;;;;9.13;3.88;;;3.80;99.90;;;;;;4260155;27;20055;-86
2022/01/07 03:44:00;;;;;;;7.38;3.78;;;2.50;99.90;;;;;;4249517;27;20126;-85
2022/01/07 03:46:01;;;;;;;6.07;3.85;;;3.90;99.90;;;;;;4268449;27;20505;-85
2022/01/07 03:48:03;;;;;;;5.25;3.40;;;2.50;99.90;;;;;;4267989;27;20049;-85
2022/01/07 03:50:07;;;;;;;7.93;3.42;;;2.50;99.90;;;;;;4233735;28;20047;-85
2022/01/07 03:52:09;;;;;;;9.70;4.20;;;2.40;99.90;;;;;;4267589;27;20447;-85
2022/01/07 03:54:10;;;;;;;8.68;4.20;;;3.40;99.90;;;;;;4255870;27;20538;-85
2022/01/07 03:56:17;;;;;;;7.05;4.30;;;2.50;99.90;;;;;;4231822;28;20055;-85
2022/01/07 03:58:19;;;;;;;9.95;4.18;;;3.70;99.90;;;;;;4254276;27;20046;-85
2022/01/07 04:00:33;;;;;;;8.90;4.10;;;3.10;99.90;;;;;;4225314;28;20102;-85
2022/01/07 04:02:35;;;;;;;10.85;3.83;;;2.60;99.90;;;;;;4251115;27;20111;-85
2022/01/07 04:04:35;;;;;;;8.27;3.45;;;3.90;99.90;;;;;;4250945;27;20063;-85
2022/01/07 04:06:38;;;;;;;9.10;3.88;;;3.00;99.90;;;;;;4252905;27;20039;-85
2022/01/07 04:08:39;;;;;;;7.43;3.88;;;2.50;99.90;;;;;;4249077;27;20051;-86
2022/01/07 04:10:40;;;;;;;8.10;4.07;;;1.50;99.90;;;;;;4268140;27;20047;-86
2022/01/07 04:12:41;;;;;;;6.97;3.85;;;3.20;99.90;;;;;;4268288;27;20082;-86
2022/01/07 04:14:44;;;;;;;6.50;3.42;;;3.50;99.90;;;;;;4232442;28;20480;-86
2022/01/07 04:16:44;;;;;;;8.65;3.88;;;3.30;99.90;;;;;;4232490;28;20067;-86
2022/01/07 04:18:45;;;;;;;9.15;3.83;;;3.90;99.90;;;;;;4245636;27;20043;-86
2022/01/07 04:20:46;;;;;;;7.13;4.22;;;3.20;99.90;;;;;;4215088;28;20043;-86
2022/01/07 04:22:47;;;;;;;10.82;4.22;;;;;;;;;;4250233;27;20516;-86
2022/01/07 04:24:48;;;;;;;10.50;4.57;;;2.60;99.90;;;;;;4218419;28;20104;-86
2022/01/07 04:26:49;;;;;;;9.73;4.10;;;3.80;99.90;;;;;;4250312;27;20043;-86
2022/01/07 04:28:51;;;;;;;6.25;3.63;;;3.10;99.90;;;;;;4251281;27;20039;-85
2022/01/07 04:30:52;;;;;;;12.48;3.83;;;2.60;99.90;;;;;;4249281;27;20042;-85
2022/01/07 04:32:54;;;;;;;6.60;3.85;;;3.20;99.90;;;;;;4216030;28;20048;-85
2022/01/07 04:34:57;;;;;;;8.32;3.60;;;3.20;99.90;;;;;;4232022;28;20098;-86
2022/01/07 04:36:58;;;;;;;9.95;3.38;;;2.70;99.90;;;;;;4214933;28;20071;-86
2022/01/07 04:38:59;;;;;;;7.00;3.60;;;2.60;99.90;;;;;;4250215;27;20118;-85
2022/01/07 04:41:00;;;;;;;10.02;4.05;;;2.90;99.90;;;;;;4249741;27;20054;-86
2022/01/07 04:43:03;;;;;;;10.80;4.25;;;3.50;99.90;;;;;;4231564;28;20137;-86
2022/01/07 04:45:05;;;;;;;7.75;4.20;;;3.80;99.90;;;;;;4215641;28;20474;-84
2022/01/07 04:47:09;;;;;;;10.38;4.07;;;2.70;99.90;;;;;;4216311;28;20047;-86
2022/01/07 04:49:11;;;;;;;7.15;3.90;;;2.80;99.90;;;;;;4251530;27;20035;-86
2022/01/07 04:51:14;;;;;;;7.30;3.10;;;4.10;99.90;;;;;;4256085;28;20047;-86
2022/01/07 04:53:15;;;;;;;6.00;3.97;;;4.00;99.90;;;;;;4262227;28;20053;-84
2022/01/07 04:55:21;;;;;;;8.82;4.00;;;2.90;99.90;;;;;;4270103;27;20067;-84
2022/01/07 04:57:22;;;;;;;9.38;3.90;;;3.40;99.90;;;;;;4262497;27;20050;-86
2022/01/07 04:59:23;;;;;;;7.88;4.20;;;3.60;99.90;;;;;;4267716;27;20067;-85
2022/01/07 05:01:24;;;;;;;7.80;3.50;;;2.70;99.90;;;;;;4252209;28;20514;-86
2022/01/07 05:03:25;;;;;;;8.20;3.70;;;3.10;99.90;;;;;;4231078;28;20519;-86
2022/01/07 05:05:26;;;;;;;11.77;3.95;;;3.60;99.90;;;;;;4249693;28;20043;-86
2022/01/07 05:07:27;;;;;;;11.15;4.30;;;3.30;99.90;;;;;;4250953;27;20122;-86
2022/01/07 05:09:28;;;;;;;13.02;4.50;;;2.30;99.90;;;;;;4254021;28;20418;-85
2022/01/07 05:11:28;;;;;;;8.43;4.22;;;4.20;99.90;;;;;;4215132;28;20127;-86
2022/01/07 05:13:30;;;;;;;10.98;4.20;;;3.20;99.90;;;;;;4259152;27;20046;-86
2022/01/07 05:15:31;;;;;;;6.82;4.03;;;2.70;99.90;;;;;;4231585;28;20044;-86
2022/01/07 05:17:33;;;;;;;11.18;4.13;;;3.40;99.90;;;;;;4249450;27;20039;-86
2022/01/07 05:19:35;;;;;;;10.20;3.88;;;3.90;99.90;;;;;;4257269;27;20042;-86
2022/01/07 05:21:37;;;;;;;6.35;4.13;;;2.90;99.90;;;;;;4266065;27;20035;-86
2022/01/07 05:23:37;;;;;;;13.68;4.50;;;4.10;99.90;;;;;;4265922;27;20070;-86
2022/01/07 05:25:38;;;;;;;8.35;4.10;;;4.30;99.90;;;;;;4220291;28;20048;-86
2022/01/07 05:27:39;;;;;;;8.27;3.80;;;3.30;99.90;;;;;;4230686;28;20039;-86
2022/01/07 05:29:41;;;;;;;7.63;4.00;;;2.90;99.90;;;;;;4213821;28;20048;-86
2022/01/07 05:31:41;;;;;;;13.27;4.80;;;2.80;99.90;;;;;;4249164;27;20046;-86
2022/01/07 05:33:42;;;;;;;9.27;3.90;;;3.10;99.90;;;;;;4214327;28;20056;-86
2022/01/07 05:35:44;;;;;;;7.85;4.30;;;3.70;99.90;;;;;;4213156;28;20050;-86
2022/01/07 05:37:45;;;;;;;10.38;4.32;;;3.10;99.90;;;;;;4249049;27;20043;-86
2022/01/07 05:39:45;;;;;;;10.57;4.32;;;4.30;99.90;;;;;;4249362;28;20075;-86
2022/01/07 05:41:46;;;;;;;8.95;4.45;;;4.30;99.90;;;;;;4230789;28;20055;-86
2022/01/07 05:43:47;;;;;;;14.00;3.78;;;4.30;99.90;;;;;;4232296;28;20070;-86
2022/01/07 05:45:49;;;;;;;7.80;3.28;;;3.00;99.90;;;;;;4252020;27;20043;-86
2022/01/07 05:47:50;;;;;;;7.43;3.65;;;3.80;99.90;;;;;;4217037;28;20047;-86
2022/01/07 05:49:51;;;;;;;12.02;3.97;;;3.10;99.90;;;;;;4233464;28;20438;-86
2022/01/07 05:51:52;;;;;;;7.03;4.07;;;3.60;99.90;;;;;;4233374;28;20100;-86
2022/01/07 05:53:53;;;;;;;7.60;4.38;;;3.80;99.90;;;;;;4233487;28;20071;-86
2022/01/07 05:55:54;;;;;;;6.45;3.80;;;4.30;99.90;;;;;;4251286;27;20039;-86
2022/01/07 05:57:55;;;;;;;8.63;3.80;;;4.30;99.90;;;;;;4233224;28;20047;-86
2022/01/07 05:59:58;;;;;;;7.63;3.95;;;3.30;99.90;;;;;;4234032;28;20070;-86
2022/01/07 06:01:59;;;;;;;10.70;4.32;;;3.60;99.90;;;;;;4251038;27;20654;-86
2022/01/07 06:03:59;;;;;;;9.93;4.18;;;4.20;99.90;;;;;;4251620;27;20051;-86
2022/01/07 06:06:00;;;;;;;7.50;3.85;;;3.50;99.90;;;;;;4233357;28;20098;-86
2022/01/07 06:08:02;;;;;;;8.50;3.90;;;4.60;99.90;;;;;;4251534;27;20042;-86
2022/01/07 06:10:07;;;;;;;9.35;3.97;;;3.10;99.90;;;;;;4233619;28;20062;-86
2022/01/07 06:12:09;;;;;;;9.45;4.20;;;3.10;99.90;;;;;;4233476;28;20051;-85
2022/01/07 06:14:11;;;;;;;6.70;4.30;;;3.10;99.90;;;;;;4251783;27;20035;-85
2022/01/07 06:16:12;;;;;;;6.55;3.58;;;4.70;99.90;;;;;;4250967;27;20064;-85
2022/01/07 06:18:13;;;;;;;8.93;3.83;;;3.80;99.90;;;;;;4251523;27;20484;-85
2022/01/07 06:20:14;;;;;;;12.07;4.53;;;3.70;99.90;;;;;;4233487;28;20057;-85
2022/01/07 06:22:15;;;;;;;11.80;4.32;;;2.20;99.90;;;;;;4233724;28;20079;-85
2022/01/07 06:24:19;;;;;;;8.10;4.15;;;4.20;99.90;;;;;;4233116;28;20044;-85
2022/01/07 06:26:22;;;;;;;8.57;4.00;;;3.30;99.90;;;;;;4258016;27;20439;-86
2022/01/07 06:28:24;;;;;;;10.30;4.10;;;3.20;99.90;;;;;;4255476;27;20075;-84
2022/01/07 06:30:28;;;;;;;9.18;4.63;;;3.50;99.90;;;;;;4251137;27;20515;-85
2022/01/07 06:32:29;;;;;;;8.27;3.78;;;4.60;99.90;;;;;;4251928;27;20043;-85
2022/01/07 06:34:34;;;;;;;9.27;4.07;;;3.50;99.90;;;;;;4234012;28;20054;-85
2022/01/07 06:36:35;;;;;;;6.32;4.03;;;3.20;99.90;;;;;;4233523;28;20047;-84
2022/01/07 06:38:36;;;;;;;8.40;4.50;;;3.20;99.90;;;;;;4251375;27;20463;-84
2022/01/07 06:40:37;;;;;;;7.10;3.65;;;3.20;99.90;;;;;;4216654;28;20382;-85
2022/01/07 06:42:39;;;;;;;6.50;3.80;;;4.50;99.90;;;;;;4218320;28;20136;-85
2022/01/07 06:44:40;;;;;;;8.90;3.60;;;3.20;99.90;;;;;;4217078;28;20080;-85
2022/01/07 06:46:42;;;;;;;10.25;4.72;;;3.50;99.90;;;;;;4252296;27;20433;-86
2022/01/07 06:48:44;;;;;;;10.68;4.75;;;3.20;99.90;;;;;;4252213;27;20556;-85
2022/01/07 06:50:46;;;;;;;7.38;3.75;;;4.70;99.90;;;;;;4250812;27;20039;-85
2022/01/07 06:52:47;;;;;;;6.72;4.05;;;2.00;99.90;;;;;;4233184;28;20055;-85
2022/01/07 06:54:49;;;;;;;7.25;3.80;;;4.20;99.90;;;;;;4250930;27;20118;-84
2022/01/07 06:56:50;;;;;;;9.98;3.58;;;3.50;99.90;;;;;;4250855;27;20081;-85
2022/01/07 06:59:00;;;;;;;7.68;3.90;;;3.00;99.90;;;;;;4252295;27;20050;-86
2022/01/07 07:01:05;;;;;;;7.05;4.03;;;3.20;99.90;;;;;;4231597;28;20060;-87
2022/01/07 07:03:06;;;;;;;8.13;4.07;;;3.20;99.90;;;;;;4252987;27;20127;-86
2022/01/07 07:05:08;;;;;;;7.50;3.75;;;3.20;99.90;;;;;;4243951;27;20520;-87
2022/01/07 07:07:10;;;;;;;6.38;3.63;;;3.20;99.90;;;;;;4233441;28;20071;-86
2022/01/07 07:09:12;;;;;;;7.70;3.60;;;4.50;99.90;;;;;;4232788;28;20043;-86
2022/01/07 07:11:13;;;;;;;6.28;3.88;;;3.80;99.90;;;;;;4251151;27;20044;-87
2022/01/07 07:13:13;;;;;;;10.02;3.95;;;3.30;99.90;;;;;;4232393;28;20218;-85
2022/01/07 07:15:14;;;;;;;9.13;4.18;;;3.30;99.90;;;;;;4231809;28;20104;-85
2022/01/07 07:17:15;;;;;;;7.40;4.05;;;3.30;99.90;;;;;;4250037;27;20469;-86
2022/01/07 07:19:28;;;;;;;8.40;4.07;;;4.40;99.90;;;;;;4215706;28;20053;-85
2022/01/07 07:21:30;;;;;;;7.30;4.10;;;4.60;99.90;;;;;;4220548;28;20056;-85
2022/01/07 07:23:31;;;;;;;8.85;4.28;;;3.80;99.90;;;;;;4219991;28;20039;-86
2022/01/07 07:25:33;;;;;;;7.43;3.95;;;3.80;99.90;;;;;;4260163;27;20046;-85
2022/01/07 07:27:36;;;;;;;6.97;4.18;;;4.40;99.90;;;;;;4228602;28;20107;-85
2022/01/07 07:29:37;;;;;;;8.05;4.10;;;3.30;99.90;;;;;;4251793;27;20102;-85
2022/01/07 07:31:41;;;;;;;9.50;3.95;;;4.10;99.90;;;;;;4243590;27;20394;-85
2022/01/07 07:37:49;;;;;;;7.65;4.75;;;3.40;99.90;;;;;;4239771;27;20573;-85
2022/01/07 07:39:51;;;;;;;9.48;4.47;;;4.20;99.90;;;;;;4249487;27;20046;-85
2022/01/07 07:41:52;;;;;;;9.00;3.90;;;3.80;99.90;;;;;;4242095;27;20043;-85
2022/01/07 07:43:56;;;;;;;11.10;5.50;;;5.10;99.90;;;;;;4215861;28;20048;-85
2022/01/07 07:45:58;;;;;;;9.20;5.30;;;3.70;99.90;;;;;;4217293;28;20058;-84
2022/01/07 07:47:58;;;;;;;10.27;4.57;;;3.70;99.90;;;;;;4250506;27;20051;-83
2022/01/07 07:49:59;;;;;;;11.95;5.43;;;3.50;99.90;;;;;;4250311;27;20038;-84
2022/01/07 07:52:01;;;;;;;14.52;4.85;;;5.00;99.90;;;;;;4231889;28;20075;-83
2022/01/07 07:54:04;;;;;;;9.50;4.50;;;3.60;99.90;;;;;;4215650;28;20070;-83
2022/01/07 07:56:05;;;;;;;11.23;5.22;;;3.50;99.90;;;;;;4214741;28;20405;-85
2022/01/07 07:58:05;;;;;;;13.55;5.38;;;3.70;99.90;;;;;;4214893;28;20131;-85
2022/01/07 08:00:07;;;;;;;8.13;4.85;;;3.50;99.90;;;;;;4231505;28;20043;-86
2022/01/07 08:02:09;;;;;;;9.57;4.75;;;3.70;99.90;;;;;;4234501;28;20097;-85
2022/01/07 08:04:11;;;;;;;11.95;5.25;;;4.20;99.90;;;;;;4252918;27;20122;-85
2022/01/07 08:06:12;;;;;;;11.73;5.53;;;4.80;99.90;;;;;;4251818;27;20040;-85
2022/01/07 08:08:32;;;;;;;7.75;5.15;;;2.60;99.90;;;;;;4251140;27;20089;-85
2022/01/07 08:10:49;;;;;;;9.30;4.97;;;5.20;99.90;;;;;;4216338;28;20417;-86
2022/01/07 08:17:11;;;;;;;12.50;5.03;;;4.80;99.90;;;;;;4250880;27;20043;-86
2022/01/07 08:19:13;;;;;;;13.75;5.60;;;4.90;99.90;;;;;;4232654;28;20062;-86
2022/01/07 08:21:14;;;;;;;15.48;6.97;;;3.80;99.90;;;;;;4249946;27;20040;-84
2022/01/07 08:23:16;;;;;;;15.23;7.05;;;4.30;99.90;;;;;;4249967;27;20494;-86
2022/01/07 08:25:17;;;;;;;16.90;6.32;;;4.20;99.90;;;;;;4222087;28;20098;-84
2022/01/07 08:27:21;;;;;;;10.90;5.28;;;5.40;99.90;;;;;;4236213;27;20047;-85
2022/01/07 08:29:25;;;;;;;13.57;6.15;;;5.00;99.90;;;;;;4247886;27;20085;-84
2022/01/07 08:35:50;;;;;;;17.05;6.78;;;3.80;99.90;;;;;;4266800;27;20436;-85
2022/01/07 08:37:51;;;;;;;20.45;6.47;;;4.00;99.90;;;;;;4249013;27;20047;-85
2022/01/07 08:39:56;;;;;;;11.32;5.75;;;4.00;99.90;;;;;;4248327;27;20051;-84
2022/01/07 08:41:58;;;;;;;15.25;7.07;;;4.00;99.90;;;;;;4248369;27;20498;-85
2022/01/07 08:44:01;;;;;;;12.82;6.45;;;4.00;99.90;;;;;;4249040;27;20043;-85
2022/01/07 08:46:07;;;;;;;16.95;6.38;;;5.10;99.90;;;;;;4231424;28;20113;-85
2022/01/07 08:48:09;;;;;;;18.23;6.45;;;4.10;99.90;;;;;;4230936;28;20165;-84
2022/01/07 08:50:10;;;;;;;14.68;6.60;;;5.20;99.90;;;;;;4250824;27;20031;-84
2022/01/07 08:52:11;;;;;;;19.08;6.35;;;4.20;99.90;;;;;;4230829;28;20050;-84
2022/01/07 08:54:12;;;;;;;19.90;6.13;;;5.10;99.90;;;;;;4232529;28;20032;-84
2022/01/07 08:56:16;;;;;;;10.40;6.38;;;4.10;99.90;;;;;;4249987;27;20406;-84
2022/01/07 08:58:17;;;;;;;13.07;6.95;;;4.10;99.90;;;;;;4230779;28;20481;-84
2022/01/07 09:00:19;;;;;;;13.75;6.20;;;4.20;99.90;;;;;;4248891;28;20039;-84
2022/01/07 09:02:20;;;;;;;20.02;6.00;;;5.40;99.90;;;;;;4249562;27;20043;-84
2022/01/07 09:04:24;;;;;;;14.13;6.60;;;4.90;99.90;;;;;;4249940;28;20483;-85
2022/01/07 09:06:26;;;;;;;16.55;6.18;;;4.30;99.90;;;;;;4230980;28;20040;-86
2022/01/07 09:08:28;;;;;;;17.52;6.47;;;5.30;99.90;;;;;;4249425;28;20518;-85
2022/01/07 09:10:30;;;;;;;17.00;7.05;;;4.30;99.90;;;;;;4213778;28;20541;-85
2022/01/07 09:12:30;;;;;;;15.60;6.68;;;5.50;99.90;;;;;;4249141;27;20088;-85
2022/01/07 09:14:32;;;;;;;17.52;6.60;;;4.30;99.90;;;;;;4230072;28;20445;-85
2022/01/07 09:16:33;;;;;;;12.80;6.57;;;4.30;99.90;;;;;;4249210;28;20039;-85
2022/01/07 09:18:35;;;;;;;13.70;7.10;;;5.00;99.90;;;;;;4232441;28;20048;-85
2022/01/07 09:20:40;;;;;;;18.48;6.50;;;4.40;99.90;;;;;;4252618;27;20035;-85
2022/01/07 09:22:42;;;;;;;14.85;6.90;;;4.40;99.90;;;;;;4233736;28;20091;-86
2022/01/07 09:24:46;;;;;;;14.70;6.82;;;5.70;99.90;;;;;;4254922;27;20054;-87
2022/01/07 09:26:48;;;;;;;16.23;6.53;;;4.50;99.90;;;;;;4270108;27;20042;-86
2022/01/07 09:28:49;;;;;;;15.32;6.22;;;4.60;99.90;;;;;;4217154;28;20088;-86
2022/01/07 09:30:55;;;;;;;12.50;6.32;;;4.60;99.90;;;;;;4252177;27;20074;-85
2022/01/07 09:32:57;;;;;;;13.50;6.15;;;5.80;99.90;;;;;;4251666;27;20039;-85
2022/01/07 09:34:57;;;;;;;18.65;6.95;;;4.60;99.90;;;;;;4236563;27;20062;-86
2022/01/07 09:37:01;;;;;;;20.08;6.53;;;6.00;99.90;;;;;;4252552;27;20134;-85
2022/01/07 09:39:04;;;;;;;16.75;6.82;;;5.70;99.90;;;;;;4250409;27;20112;-85
2022/01/07 09:41:07;;;;;;;16.77;7.15;;;5.90;99.90;;;;;;4210788;28;20551;-84
2022/01/07 09:43:09;;;;;;;15.13;6.40;;;4.70;99.90;;;;;;4204244;28;20044;-84
2022/01/07 09:45:09;;;;;;;20.23;7.13;;;5.80;99.90;;;;;;4232233;28;20052;-85
2022/01/07 09:47:13;;;;;;;15.00;6.82;;;4.60;99.90;;;;;;4232498;28;20062;-85
2022/01/07 09:49:15;;;;;;;16.98;7.07;;;4.70;99.90;;;;;;4233540;28;20044;-85
2022/01/07 09:51:16;;;;;;;19.25;6.90;;;4.70;99.90;;;;;;4232693;28;20071;-85
2022/01/07 09:53:18;;;;;;;15.65;5.88;;;4.70;99.90;;;;;;4233451;28;20476;-85
2022/01/07 09:55:20;;;;;;;18.27;7.50;;;5.10;99.90;;;;;;4215533;28;20044;-85
2022/01/07 09:57:21;;;;;;;20.33;7.38;;;4.90;99.90;;;;;;4232158;28;20043;-85
2022/01/07 09:59:26;;;;;;;14.50;6.53;;;6.30;99.90;;;;;;4232290;28;20455;-85
2022/01/07 10:01:27;;;;;;;16.65;6.65;;;6.10;99.90;;;;;;4206431;28;20044;-85
2022/01/07 10:03:41;;;;;;;15.63;6.85;;;4.90;99.90;;;;;;4215864;28;20097;-85
2022/01/07 10:05:47;;;;;;;15.70;5.88;;;4.90;99.90;;;;;;4198507;28;20083;-86
2022/01/07 10:07:47;;;;;;;12.57;5.85;;;6.00;99.90;;;;;;4210201;28;20435;-85
2022/01/07 10:10:04;;;;;;;13.48;6.32;;;4.90;99.90;;;;;;4231998;28;20051;-85
2022/01/07 10:12:07;;;;;;;9.68;5.07;;;4.80;99.90;;;;;;4232010;28;20420;-86
2022/01/07 10:14:20;;;;;;;13.95;5.85;;;4.80;99.90;;;;;;4217949;28;20080;-84
2022/01/07 10:16:23;;;;;;;14.90;5.32;;;4.80;99.90;;;;;;4215786;28;20135;-84
2022/01/07 10:18:38;;;;;;;15.07;5.00;;;4.80;99.90;;;;;;4217263;28;20051;-84
2022/01/07 10:20:46;;;;;;;9.10;4.38;;;4.80;99.90;;;;;;4215805;28;20170;-84
2022/01/07 10:22:50;;;;;;;9.05;4.80;;;4.80;99.90;;;;;;4217339;28;20059;-85
2022/01/07 10:24:55;;;;;;;8.73;3.67;;;5.50;99.90;;;;;;4216247;28;20043;-84
2022/01/07 10:27:13;;;;;;;8.35;3.55;;;6.10;99.90;;;;;;4216005;28;20059;-84
2022/01/07 10:29:32;;;;;;;6.93;3.15;;;5.50;99.90;;;;;;4216602;28;20059;-84
2022/01/07 10:31:33;;;;;;;2.42;1.65;;;4.90;99.90;;;;;;4216539;28;20189;-84
2022/01/07 10:33:39;;;;;;;2.88;1.10;;;4.80;99.90;;;;;;4198588;28;20045;-84
2022/01/07 10:35:40;;;;;;;5.47;1.10;;;4.90;99.90;;;;;;4216723;28;20105;-84
2022/01/07 10:37:57;;;;;;;1.27;0.80;;;4.80;99.90;;;;;;4202046;28;20052;-84
2022/01/07 10:39:58;;;;;;;5.63;1.30;;;4.70;99.90;;;;;;4219994;28;20117;-83
2022/01/07 10:42:00;;;;;;;3.00;0.80;;;4.80;99.90;;;;;;4212588;28;20060;-82
2022/01/07 10:44:04;;;;;;;2.55;1.00;;;5.90;99.90;;;;;;4247085;27;20047;-84
2022/01/07 10:46:08;;;;;;;5.38;1.05;;;4.80;99.90;;;;;;4247335;28;20052;-83
2022/01/07 10:48:09;;;;;;;2.83;1.60;;;5.00;99.90;;;;;;4250393;28;20058;-84
2022/01/07 10:50:23;;;;;;;2.53;1.10;;;5.10;99.90;;;;;;4250413;28;20057;-84
2022/01/07 10:52:24;;;;;;;2.58;1.27;;;5.30;99.90;;;;;;4248200;28;20047;-85
2022/01/07 10:54:26;;;;;;;5.45;1.40;;;5.40;99.90;;;;;;4249968;27;20507;-85